Time;durP1;ratioP1;P1;durP2;ratioP2;P2;SDS_P1;SDS_P2;PMS_P1;PMS_P2;Temp;Humidity;BMP_temperature;BMP_pressure;BME280_temperature;BME280_humidity;BME280_pressure;Samples;Min_cycle;Max_cycle;Signal;HPM_P1;HPM_P2
2022/04/24 00:01:53;;;;;;;6.33;1.60;;;;;;;12.09;87.35;94001.34;5033741;28;20206;-60
2022/04/24 00:04:19;;;;;;;5.60;1.37;;;;;;;12.06;87.47;93995.78;5033603;28;20655;-62
2022/04/24 00:06:46;;;;;;;2.50;1.63;;;;;;;11.94;88.67;93982.50;5033711;28;20541;-61
2022/04/24 00:09:14;;;;;;;3.13;1.40;;;;;;;11.82;89.01;93984.53;5033359;28;20182;-61
2022/04/24 00:11:40;;;;;;;4.43;1.83;;;;;;;11.65;90.16;93987.16;5033541;28;20814;-64
2022/04/24 00:14:09;;;;;;;2.30;1.20;;;;;;;11.60;90.81;93989.34;5033396;28;20175;-62
2022/04/24 00:16:36;;;;;;;5.10;1.63;;;;;;;11.60;90.94;93995.25;5033808;28;20242;-62
2022/04/24 00:19:01;;;;;;;4.63;1.67;;;;;;;11.64;90.82;93983.81;5033224;28;20194;-62
2022/04/24 00:21:27;;;;;;;3.37;1.50;;;;;;;11.55;90.96;93987.25;5033229;28;20232;-62
2022/04/24 00:23:52;;;;;;;5.30;2.10;;;;;;;11.62;90.83;93993.34;5032988;28;20178;-62
2022/04/24 00:26:18;;;;;;;4.27;1.70;;;;;;;11.69;90.71;94002.00;5033201;28;20186;-61
2022/04/24 00:28:43;;;;;;;2.87;1.63;;;;;;;11.68;90.41;94002.13;5033460;28;20183;-62
2022/04/24 00:31:08;;;;;;;6.27;2.00;;;;;;;11.78;90.06;94001.06;5034550;28;20171;-63
2022/04/24 00:33:34;;;;;;;3.47;1.90;;;;;;;11.80;89.62;94008.56;5033143;28;20233;-61
2022/04/24 00:35:59;;;;;;;3.27;1.73;;;;;;;11.82;89.66;94010.00;5032726;28;20249;-62
2022/04/24 00:38:25;;;;;;;3.53;1.70;;;;;;;11.80;90.10;94006.00;5031639;28;20309;-61
2022/04/24 00:40:52;;;;;;;2.90;1.80;;;;;;;11.83;89.47;94010.81;5032951;28;20561;-63
2022/04/24 00:43:18;;;;;;;3.60;1.63;;;;;;;11.86;89.72;94004.63;5031770;28;20202;-62
2022/04/24 00:45:44;;;;;;;8.47;1.97;;;;;;;11.99;89.74;94010.88;5032712;28;20190;-59
2022/04/24 00:48:09;;;;;;;3.77;1.70;;;;;;;12.13;89.44;94006.94;5033347;28;20252;-63
2022/04/24 00:50:39;;;;;;;6.40;1.60;;;;;;;12.15;88.36;94020.31;5032407;28;20190;-61
2022/04/24 00:53:06;;;;;;;4.23;2.03;;;;;;;12.20;87.27;94030.84;5031283;28;20206;-61
2022/04/24 00:55:32;;;;;;;3.80;1.97;;;;;;;12.01;87.62;94019.16;5032790;28;20190;-62
2022/04/24 00:57:57;;;;;;;4.07;1.70;;;;;;;11.92;88.20;94020.06;5032962;28;20222;-61
2022/04/24 01:00:23;;;;;;;3.73;1.80;;;;;;;11.87;89.95;94001.91;5031320;28;20224;-61
2022/04/24 01:02:48;;;;;;;3.33;1.60;;;;;;;12.07;88.39;94027.94;5032939;28;20225;-60
2022/04/24 01:05:17;;;;;;;5.53;2.17;;;;;;;11.89;88.67;94022.13;5032708;28;20259;-62
2022/04/24 01:07:43;;;;;;;6.90;1.60;;;;;;;11.95;89.59;94013.88;5031309;28;20213;-60
2022/04/24 01:10:09;;;;;;;4.33;2.20;;;;;;;12.01;89.00;94020.91;5032220;28;20186;-59
2022/04/24 01:12:34;;;;;;;6.00;1.90;;;;;;;12.10;88.15;94035.28;5032636;28;20222;-60
2022/04/24 01:15:00;;;;;;;3.67;2.17;;;;;;;12.09;88.47;94031.94;5032205;28;20178;-62
2022/04/24 01:17:26;;;;;;;3.43;1.70;;;;;;;12.03;88.97;94019.81;5033347;28;20226;-61
2022/04/24 01:19:53;;;;;;;3.27;1.67;;;;;;;12.12;89.33;94026.50;5032123;28;20178;-61
2022/04/24 01:22:19;;;;;;;8.10;1.70;;;;;;;12.19;87.87;94030.03;5031286;28;20268;-60
2022/04/24 01:24:44;;;;;;;4.63;1.80;;;;;;;12.42;86.63;94060.84;5030850;28;20190;-61
2022/04/24 01:27:10;;;;;;;3.23;1.70;;;;;;;12.32;86.77;94050.78;5031102;28;20217;-61
2022/04/24 01:29:35;;;;;;;2.23;1.40;;;;;;;12.20;87.59;94043.59;5032546;28;20608;-61
2022/04/24 01:32:01;;;;;;;3.40;1.77;;;;;;;12.23;87.84;94044.06;5032017;28;20220;-63
2022/04/24 01:34:26;;;;;;;2.10;1.43;;;;;;;12.40;86.83;94063.53;5030679;28;20677;-63
2022/04/24 01:36:52;;;;;;;2.50;1.63;;;;;;;12.55;86.17;94071.38;5031978;28;20222;-62
2022/04/24 01:39:17;;;;;;;2.73;1.80;;;;;;;12.61;84.72;94081.78;5030664;28;20724;-61
2022/04/24 01:41:43;;;;;;;4.27;1.47;;;;;;;12.54;83.76;94095.31;5030857;28;20206;-62
2022/04/24 01:44:09;;;;;;;3.93;2.00;;;;;;;12.40;85.61;94075.50;5031836;28;20182;-59
2022/04/24 01:46:34;;;;;;;2.67;1.50;;;;;;;12.43;86.56;94049.69;5031888;28;20574;-58
2022/04/24 01:49:00;;;;;;;5.97;1.33;;;;;;;12.40;84.83;94086.47;5035061;28;20182;-60
2022/04/24 01:51:26;;;;;;;3.10;1.70;;;;;;;12.24;85.42;94071.13;5031719;28;20175;-60
2022/04/24 01:53:52;;;;;;;3.53;1.60;;;;;;;12.27;85.27;94087.88;5032188;28;20679;-60
2022/04/24 01:56:17;;;;;;;4.80;1.90;;;;;;;11.90;87.62;94056.84;5031745;28;20309;-62
2022/04/24 01:58:43;;;;;;;2.63;1.67;;;;;;;11.57;89.63;94033.72;5032108;28;20252;-62
2022/04/24 02:01:09;;;;;;;6.33;2.07;;;;;;;11.57;91.19;94040.56;5032170;28;20257;-61
2022/04/24 02:03:35;;;;;;;3.93;1.87;;;;;;;11.43;92.44;94034.28;5036198;28;20201;-60
2022/04/24 02:06:02;;;;;;;6.40;2.17;;;;;;;11.47;92.77;94030.47;5035741;28;20182;-60
2022/04/24 02:08:28;;;;;;;5.53;2.43;;;;;;;11.23;95.30;94032.88;5035710;28;20194;-63
2022/04/24 02:10:53;;;;;;;3.27;2.00;;;;;;;11.12;96.66;94045.84;5035902;28;20179;-62
2022/04/24 02:13:19;;;;;;;5.73;2.00;;;;;;;11.04;97.27;94042.44;5035937;28;20214;-61
2022/04/24 02:15:49;;;;;;;4.33;2.27;;;;;;;11.14;97.32;94043.16;5035455;28;20236;-62
2022/04/24 02:18:15;;;;;;;5.60;2.30;;;;;;;11.05;97.63;94042.28;5035972;28;20213;-60
2022/04/24 02:20:40;;;;;;;3.63;1.80;;;;;;;10.93;98.74;94051.09;5035434;28;20186;-63
2022/04/24 02:23:06;;;;;;;6.30;2.13;;;;;;;10.86;98.51;94050.09;5035955;28;20213;-61
2022/04/24 02:25:32;;;;;;;5.47;2.20;;;;;;;10.75;99.77;94047.75;5034087;28;20178;-62
2022/04/24 02:27:58;;;;;;;5.40;2.60;;;;;;;10.55;100.00;94046.31;5035773;28;20672;-60
2022/04/24 02:30:26;;;;;;;6.60;2.50;;;;;;;10.61;100.00;94050.81;5035120;28;20240;-61
2022/04/24 02:32:52;;;;;;;7.07;2.50;;;;;;;10.65;100.00;94052.13;5035513;28;20213;-60
2022/04/24 02:35:17;;;;;;;6.40;2.33;;;;;;;10.71;100.00;94046.44;5035043;28;20173;-62
2022/04/24 02:37:44;;;;;;;4.93;1.97;;;;;;;10.79;100.00;94047.31;5035523;28;20216;-60
2022/04/24 02:40:10;;;;;;;4.17;2.37;;;;;;;10.95;99.82;94052.53;5035134;28;20178;-61
2022/04/24 02:42:40;;;;;;;8.23;2.37;;;;;;;11.06;98.56;94065.97;5035027;28;20202;-62
2022/04/24 02:45:09;;;;;;;4.33;2.00;;;;;;;11.14;97.65;94059.22;5035201;28;20184;-60
2022/04/24 02:47:38;;;;;;;5.40;2.23;;;;;;;11.14;97.98;94061.75;5035385;28;20206;-59
2022/04/24 02:50:04;;;;;;;3.20;1.83;;;;;;;11.27;96.86;94062.16;5033625;28;20624;-60
2022/04/24 02:52:29;;;;;;;7.47;2.37;;;;;;;11.15;96.34;94065.88;5035293;28;20209;-61
2022/04/24 02:54:55;;;;;;;6.57;2.13;;;;;;;11.23;95.52;94072.81;5034937;28;20170;-60
2022/04/24 02:57:20;;;;;;;6.17;2.07;;;;;;;11.32;95.59;94076.97;5035097;28;20297;-62
2022/04/24 02:59:53;;;;;;;5.70;2.37;;;;;;;11.23;95.68;94078.66;5034701;28;20181;-60
2022/04/24 03:02:19;;;;;;;6.03;2.37;;;;;;;11.20;96.21;94078.16;5034737;28;20237;-59
2022/04/24 03:04:47;;;;;;;4.63;2.33;;;;;;;11.15;96.86;94075.28;5034902;28;20174;-60
2022/04/24 03:07:13;;;;;;;4.90;2.30;;;;;;;11.37;95.59;94085.75;5035033;28;20285;-61
2022/04/24 03:09:39;;;;;;;6.43;2.50;;;;;;;11.39;96.29;94088.97;5034555;28;20269;-63
2022/04/24 03:12:05;;;;;;;4.30;2.00;;;;;;;11.37;96.29;94079.91;5033270;28;20210;-62
2022/04/24 03:14:31;;;;;;;4.17;2.60;;;;;;;11.35;96.85;94087.66;5033249;28;20187;-61
2022/04/24 03:16:56;;;;;;;9.97;2.80;;;;;;;11.42;96.38;94093.75;5034709;28;20573;-62
2022/04/24 03:19:22;;;;;;;4.70;2.53;;;;;;;11.55;95.44;94101.00;5034899;28;20223;-61
2022/04/24 03:21:48;;;;;;;6.10;2.67;;;;;;;11.46;96.27;94101.91;5034745;28;20264;-63
2022/04/24 03:24:13;;;;;;;5.43;2.80;;;;;;;11.39;96.09;94103.44;5034414;28;20262;-62
2022/04/24 03:26:39;;;;;;;7.20;2.80;;;;;;;11.67;93.81;94120.22;5034230;28;20281;-60
2022/04/24 03:29:05;;;;;;;5.57;2.53;;;;;;;11.66;92.60;94124.50;5034425;28;20178;-61
2022/04/24 03:31:30;;;;;;;6.63;2.90;;;;;;;11.56;92.72;94125.50;5034376;28;20209;-61
2022/04/24 03:33:56;;;;;;;9.73;3.13;;;;;;;11.44;92.60;94124.16;5034334;28;20175;-62
2022/04/24 03:36:21;;;;;;;3.93;1.90;;;;;;;11.38;92.55;94133.19;5034254;28;20185;-60
2022/04/24 03:38:47;;;;;;;7.20;2.10;;;;;;;11.27;92.98;94120.69;5034206;28;20170;-61
2022/04/24 03:41:12;;;;;;;4.37;1.80;;;;;;;11.24;93.24;94123.53;5033785;28;20184;-60
2022/04/24 03:43:38;;;;;;;4.00;1.87;;;;;;;11.10;93.53;94113.88;5033949;28;20263;-62
2022/04/24 03:46:06;;;;;;;7.33;2.27;;;;;;;10.96;95.23;94101.66;5033985;28;20174;-60
2022/04/24 03:48:32;;;;;;;8.23;2.20;;;;;;;10.71;97.20;94102.38;5033684;28;20690;-60
2022/04/24 03:50:58;;;;;;;4.60;2.27;;;;;;;10.93;95.81;94109.56;5033760;28;20175;-60
2022/04/24 03:53:23;;;;;;;4.70;2.00;;;;;;;10.99;95.54;94114.88;5033737;28;20694;-60
2022/04/24 03:55:48;;;;;;;5.47;2.20;;;;;;;10.93;95.36;94118.00;5033850;28;20182;-60
2022/04/24 03:58:14;;;;;;;3.00;1.67;;;;;;;10.79;95.37;94110.06;5034155;28;20732;-64
2022/04/24 04:00:40;;;;;;;4.20;1.70;;;;;;;10.63;96.79;94099.75;5033575;28;20257;-61
2022/04/24 04:03:05;;;;;;;3.10;1.90;;;;;;;10.46;98.79;94090.38;5034420;28;20202;-59
2022/04/24 04:05:31;;;;;;;6.97;2.47;;;;;;;10.39;99.77;94091.88;5033616;28;20174;-61
2022/04/24 04:07:56;;;;;;;5.07;2.30;;;;;;;10.32;100.00;94101.03;5033973;28;20204;-61
2022/04/24 04:10:22;;;;;;;4.70;3.17;;;;;;;10.24;100.00;94104.25;5033734;28;20178;-62
2022/04/24 04:12:49;;;;;;;4.77;2.90;;;;;;;10.30;100.00;94100.38;5033317;28;20623;-62
2022/04/24 04:15:15;;;;;;;8.67;3.13;;;;;;;10.36;100.00;94102.34;5033489;28;20716;-61
2022/04/24 04:17:40;;;;;;;8.03;3.43;;;;;;;10.31;100.00;94097.69;5032159;28;20578;-61
2022/04/24 04:20:11;;;;;;;5.13;2.90;;;;;;;10.46;100.00;94098.81;5033230;28;20166;-61
2022/04/24 04:22:56;;;;;;;8.07;2.97;;;;;;;10.52;100.00;94107.59;5033747;28;20206;-60
2022/04/24 04:25:24;;;;;;;4.10;2.43;;;;;;;10.51;100.00;94111.88;5032115;28;20182;-62
2022/04/24 04:27:50;;;;;;;5.97;2.27;;;;;;;10.47;100.00;94108.00;5033538;28;20234;-62
2022/04/24 04:30:16;;;;;;;6.13;2.40;;;;;;;10.49;100.00;94107.88;5033047;28;20188;-60
2022/04/24 04:32:41;;;;;;;10.20;2.47;;;;;;;10.49;100.00;94107.88;5033436;28;20648;-61
2022/04/24 04:35:09;;;;;;;11.23;2.67;;;;;;;10.47;100.00;94114.84;5031857;28;20612;-60
2022/04/24 04:37:36;;;;;;;7.47;2.73;;;;;;;10.50;100.00;94112.03;5033036;28;20225;-63
2022/04/24 04:40:02;;;;;;;6.73;3.07;;;;;;;10.68;100.00;94113.66;5048333;28;20219;-62
2022/04/24 04:42:28;;;;;;;3.63;2.40;;;;;;;10.95;99.30;94133.91;5032822;28;20720;-61
2022/04/24 04:44:55;;;;;;;3.03;1.90;;;;;;;11.02;99.02;94133.34;5031693;28;20178;-61
2022/04/24 04:47:21;;;;;;;5.70;2.23;;;;;;;11.27;97.29;94146.13;5032983;28;20206;-62
2022/04/24 04:49:47;;;;;;;3.60;2.03;;;;;;;11.41;97.02;94150.69;5033318;28;20182;-60
2022/04/24 04:52:12;;;;;;;5.63;2.10;;;;;;;11.65;94.48;94166.16;5031410;28;20211;-63
2022/04/24 04:54:40;;;;;;;4.93;2.53;;;;;;;11.76;93.78;94172.78;5032463;28;20232;-61
2022/04/24 04:57:06;;;;;;;7.07;2.27;;;;;;;11.76;93.98;94163.41;5031362;28;20301;-61
2022/04/24 04:59:31;;;;;;;5.73;2.80;;;;;;;11.88;92.95;94175.91;5032538;28;20281;-61
2022/04/24 05:01:57;;;;;;;6.60;2.57;;;;;;;12.08;92.78;94182.41;5032980;28;20202;-62
2022/04/24 05:04:22;;;;;;;9.70;2.77;;;;;;;12.20;92.43;94191.38;5031160;28;20187;-62
2022/04/24 05:06:48;;;;;;;3.47;2.73;;;;;;;12.40;92.19;94187.66;5032612;28;20666;-58
2022/04/24 05:09:13;;;;;;;9.00;4.07;;;;;;;12.35;92.32;94180.47;5032329;28;20174;-61
2022/04/24 05:11:39;;;;;;;11.03;4.50;;;;;;;12.43;91.89;94195.00;5032955;28;20210;-62
2022/04/24 05:14:05;;;;;;;9.90;4.93;;;;;;;12.51;91.57;94187.38;5031223;28;20188;-61
2022/04/24 05:16:31;;;;;;;9.50;5.47;;;;;;;12.53;91.65;94188.84;5032487;28;20206;-61
2022/04/24 05:18:58;;;;;;;7.97;4.97;;;;;;;12.55;92.02;94183.56;5032496;28;20316;-63
2022/04/24 05:21:24;;;;;;;8.03;5.30;;;;;;;12.68;91.38;94192.38;5032714;28;20196;-62
2022/04/24 05:23:49;;;;;;;10.03;5.97;;;;;;;12.65;91.49;94187.59;5032095;28;20178;-60
2022/04/24 05:26:15;;;;;;;11.90;6.77;;;;;;;12.72;90.65;94187.81;5032403;28;20278;-62
2022/04/24 05:28:41;;;;;;;11.10;6.60;;;;;;;12.67;91.14;94187.44;5032154;28;20571;-63
2022/04/24 05:31:06;;;;;;;9.07;5.40;;;;;;;12.59;90.85;94183.13;5031205;28;20182;-60
2022/04/24 05:33:32;;;;;;;8.83;4.87;;;;;;;12.57;91.02;94194.41;5032256;28;20266;-62
2022/04/24 05:35:58;;;;;;;10.60;5.60;;;;;;;12.42;92.65;94171.25;5031311;28;20193;-62
2022/04/24 05:38:23;;;;;;;8.17;5.20;;;;;;;12.40;93.77;94150.22;5031814;28;20209;-60
2022/04/24 05:40:49;;;;;;;8.23;5.33;;;;;;;12.55;93.03;94169.09;5032256;28;20651;-59
2022/04/24 05:43:15;;;;;;;12.60;4.20;;;;;;;12.55;91.93;94176.72;5030944;28;20208;-62
2022/04/24 05:45:40;;;;;;;7.10;4.10;;;;;;;12.62;91.27;94182.03;5032222;28;20183;-62
2022/04/24 05:48:06;;;;;;;5.17;3.30;;;;;;;12.54;91.44;94174.34;5031865;28;20202;-62
2022/04/24 05:50:33;;;;;;;7.00;3.33;;;;;;;12.49;92.00;94168.88;5032354;28;20201;-62
2022/04/24 05:52:59;;;;;;;7.00;3.17;;;;;;;12.49;92.89;94161.25;5032433;28;20268;-64
2022/04/24 05:55:24;;;;;;;9.67;4.40;;;;;;;12.64;93.61;94165.59;5031906;28;20182;-61
2022/04/24 05:57:50;;;;;;;6.90;4.13;;;;;;;12.65;94.14;94159.56;5032190;28;20664;-60
2022/04/24 06:00:16;;;;;;;10.70;3.83;;;;;;;12.98;92.17;94185.16;5031801;28;20574;-60
2022/04/24 06:02:42;;;;;;;5.77;3.00;;;;;;;13.00;91.85;94178.16;5032233;28;20214;-60
2022/04/24 06:05:10;;;;;;;6.13;3.57;;;;;;;13.09;91.97;94167.81;5031708;28;20200;-61
2022/04/24 06:07:36;;;;;;;8.80;3.43;;;;;;;13.29;89.84;94202.31;5032025;28;20202;-61
2022/04/24 06:10:02;;;;;;;5.60;3.03;;;;;;;13.51;87.45;94212.88;5031742;28;20553;-60
2022/04/24 06:12:28;;;;;;;4.80;2.83;;;;;;;13.46;86.65;94209.06;5032076;28;20293;-62
2022/04/24 06:14:54;;;;;;;8.37;3.17;;;;;;;13.49;86.89;94206.16;5031593;28;20670;-61
2022/04/24 06:17:19;;;;;;;4.57;2.40;;;;;;;13.69;85.53;94218.66;5032122;28;20580;-60
2022/04/24 06:19:45;;;;;;;3.40;2.80;;;;;;;13.71;85.35;94214.97;5031682;28;20193;-62
2022/04/24 06:22:10;;;;;;;4.97;2.53;;;;;;;13.83;84.15;94228.22;5031488;28;20202;-62
2022/04/24 06:24:35;;;;;;;4.37;2.47;;;;;;;13.81;84.10;94222.47;5031546;28;20174;-62
2022/04/24 06:27:01;;;;;;;4.27;2.87;;;;;;;13.66;85.83;94189.09;5030332;28;20210;-60
2022/04/24 06:29:27;;;;;;;8.23;2.83;;;;;;;13.63;86.81;94174.13;5031433;28;20705;-61
2022/04/24 06:31:52;;;;;;;8.00;2.60;;;;;;;13.92;85.77;94186.38;5031734;28;20206;-62
2022/04/24 06:34:17;;;;;;;3.53;2.78;;;;;;;14.12;86.00;94185.88;5031467;28;20183;-62
2022/04/24 06:36:43;;;;;;;6.27;3.13;;;;;;;14.22;84.79;94206.16;5032711;28;20210;-62
2022/04/24 06:39:08;;;;;;;8.30;4.07;;;;;;;14.11;84.73;94201.38;5031519;28;20187;-61
2022/04/24 06:41:40;;;;;;;5.78;2.95;;;;;;;14.10;84.84;94197.22;5031400;28;20722;-61
2022/04/24 06:44:06;;;;;;;5.23;3.03;;;;;;;14.39;82.72;94223.09;5031214;28;20186;-62
2022/04/24 06:46:31;;;;;;;2.85;2.58;;;;;;;14.27;83.14;94219.25;5013519;28;20213;-60
2022/04/24 06:48:57;;;;;;;6.93;2.47;;;;;;;14.72;80.58;94259.63;5032960;28;20186;-61
2022/04/24 06:51:22;;;;;;;7.15;2.70;;;;;;;14.95;77.81;94283.53;5033518;28;20193;-61
2022/04/24 06:53:47;;;;;;;7.60;2.53;;;;;;;14.95;79.71;94240.81;5033777;28;20684;-60
2022/04/24 06:56:13;;;;;;;4.68;2.35;;;;;;;15.08;79.31;94248.78;5034877;28;20175;-60
2022/04/24 06:58:38;;;;;;;7.70;2.65;;;;;;;15.21;78.19;94255.88;5035063;28;20285;-63
2022/04/24 07:01:04;;;;;;;8.40;2.72;;;;;;;15.48;75.80;94282.84;5034757;28;20241;-61
2022/04/24 07:03:30;;;;;;;4.15;2.60;;;;;;;15.36;76.42;94259.34;5034660;28;20210;-62
2022/04/24 07:05:58;;;;;;;7.80;3.13;;;;;;;15.51;75.98;94256.91;5033768;28;20205;-63
2022/04/24 07:08:27;;;;;;;6.30;2.80;;;;;;;15.77;75.98;94249.69;5034579;28;20203;-62
2022/04/24 07:10:53;;;;;;;4.57;2.63;;;;;;;15.96;73.73;94288.47;5034389;28;20627;-60
2022/04/24 07:13:18;;;;;;;4.47;2.90;;;;;;;15.85;73.42;94278.63;5035210;28;20220;-63
2022/04/24 07:15:44;;;;;;;3.50;2.30;;;;;;;16.14;71.45;94321.50;5034510;28;20178;-62
2022/04/24 07:18:10;;;;;;;5.03;3.05;;;;;;;15.88;71.00;94305.66;5034867;28;20205;-62
2022/04/24 07:20:36;;;;;;;8.75;4.20;;;;;;;15.72;71.54;94293.75;5034377;28;20174;-62
2022/04/24 07:23:04;;;;;;;6.15;2.53;;;;;;;16.13;71.36;94301.16;5035296;28;20606;-62
2022/04/24 07:25:37;;;;;;;10.68;5.63;;;;;;;16.64;69.71;94311.50;5032901;28;20273;-62
2022/04/24 07:28:04;;;;;;;7.43;2.40;;;;;;;16.81;68.11;94349.88;5035631;28;20276;-63
2022/04/24 07:30:29;;;;;;;4.55;2.65;;;;;;;16.85;68.54;94313.38;5035002;28;20253;-62
2022/04/24 07:32:56;;;;;;;5.88;2.65;;;;;;;17.04;68.26;94317.22;5034033;28;20693;-62
2022/04/24 07:35:24;;;;;;;5.72;2.88;;;;;;;17.18;68.54;94311.28;5034206;28;20189;-63
2022/04/24 07:37:50;;;;;;;3.53;2.53;;;;;;;17.18;70.78;94244.47;5034390;28;20214;-63
2022/04/24 07:40:17;;;;;;;16.73;9.05;;;;;;;16.88;69.44;94273.72;5034476;28;20189;-63
2022/04/24 07:42:53;;;;;;;6.65;2.75;;;;;;;17.31;68.63;94301.16;5033937;28;20203;-62
2022/04/24 07:45:39;;;;;;;8.80;4.07;;;;;;;17.49;68.87;94283.63;5034288;28;20169;-62
2022/04/24 07:48:07;;;;;;;8.30;3.40;;;;;;;17.75;67.65;94319.09;5032868;28;20202;-60
2022/04/24 07:50:42;;;;;;;6.00;2.55;;;;;;;17.84;64.65;94369.44;5033882;28;20660;-62
2022/04/24 07:53:09;;;;;;;6.50;3.97;;;;;;;17.93;68.13;94276.56;5032698;28;20206;-60
2022/04/24 07:55:35;;;;;;;7.18;3.25;;;;;;;17.97;65.61;94334.38;5033577;28;20179;-62
2022/04/24 07:58:01;;;;;;;11.18;3.22;;;;;;;18.29;64.34;94338.25;5033486;28;20708;-63
2022/04/24 08:00:28;;;;;;;8.98;3.42;;;;;;;18.43;64.53;94327.94;5031448;28;20194;-60
2022/04/24 08:03:01;;;;;;;5.43;3.08;;;;;;;18.62;62.45;94364.31;5032399;28;20205;-63
2022/04/24 08:05:29;;;;;;;8.60;3.17;;;;;;;18.80;64.08;94313.94;5033662;28;20206;-63
2022/04/24 08:07:56;;;;;;;4.88;2.20;;;;;;;18.65;64.36;94312.44;5033720;28;20198;-63
2022/04/24 08:10:25;;;;;;;7.13;3.10;;;;;;;18.62;63.04;94328.28;5033236;28;20186;-60
2022/04/24 08:12:51;;;;;;;4.72;2.80;;;;;;;18.87;64.35;94294.16;5033802;28;20210;-62
2022/04/24 08:15:17;;;;;;;7.88;3.30;;;;;;;19.11;65.18;94280.03;5033335;28;20301;-63
2022/04/24 08:17:43;;;;;;;6.25;2.75;;;;;;;18.96;65.02;94266.47;5033644;28;20288;-60
2022/04/24 08:20:11;;;;;;;10.52;3.92;;;;;;;18.63;62.21;94324.69;5033266;28;20184;-62
2022/04/24 08:22:47;;;;;;;7.18;3.55;;;;;;;18.70;62.66;94307.53;5033727;28;20242;-60
2022/04/24 08:25:16;;;;;;;6.47;4.88;;;;;;;18.98;62.93;94291.06;5033498;28;20219;-62
2022/04/24 08:27:42;;;;;;;7.85;3.10;;;;;;;18.86;63.16;94286.63;5033527;28;20213;-62
2022/04/24 08:30:10;;;;;;;6.55;3.22;;;;;;;19.38;60.00;94348.00;5033202;28;20175;-62
2022/04/24 08:32:37;;;;;;;4.97;2.35;;;;;;;19.53;62.18;94286.81;5033458;28;20565;-63
2022/04/24 08:35:04;;;;;;;10.25;6.40;;;;;;;19.63;60.91;94305.28;5032986;28;20177;-62
2022/04/24 08:37:29;;;;;;;9.13;3.00;;;;;;;19.44;61.38;94300.84;5033014;28;20202;-63
2022/04/24 08:39:55;;;;;;;4.85;2.92;;;;;;;19.57;60.95;94304.28;5032598;28;20557;-61
2022/04/24 08:42:21;;;;;;;7.35;2.80;;;;;;;19.57;60.67;94314.59;5031499;28;20229;-61
2022/04/24 08:44:51;;;;;;;4.50;2.65;;;;;;;19.80;59.39;94329.75;5032795;28;20261;-62
2022/04/24 08:47:18;;;;;;;5.72;2.35;;;;;;;19.97;59.26;94326.63;5032854;28;20206;-63
2022/04/24 08:49:46;;;;;;;6.22;2.15;;;;;;;19.87;58.87;94321.03;5033002;28;20170;-61
2022/04/24 08:52:12;;;;;;;4.25;1.88;;;;;;;20.35;56.68;94359.69;5032675;28;20229;-62
2022/04/24 08:54:41;;;;;;;7.05;2.65;;;;;;;20.44;57.65;94322.38;5032369;28;20190;-61
2022/04/24 08:57:08;;;;;;;5.10;2.40;;;;;;;20.93;58.42;94296.88;5033009;28;20214;-62
2022/04/24 08:59:36;;;;;;;3.38;2.40;;;;;;;21.02;56.00;94352.59;5031054;28;20205;-61
2022/04/24 09:02:01;;;;;;;3.53;2.10;;;;;;;21.03;51.83;94425.78;5032676;28;20226;-61
2022/04/24 09:04:32;;;;;;;3.17;2.25;;;;;;;21.19;51.63;94415.81;5030931;28;20228;-60
2022/04/24 09:06:59;;;;;;;6.22;3.67;;;;;;;21.34;53.83;94348.34;5032898;28;20714;-63
2022/04/24 09:09:25;;;;;;;6.93;2.63;;;;;;;21.47;53.70;94345.75;5032479;28;20276;-60
2022/04/24 09:11:50;;;;;;;6.93;2.40;;;;;;;21.75;52.30;94380.66;5014043;28;20352;-61
2022/04/24 09:14:18;;;;;;;3.72;2.05;;;;;;;22.27;55.21;94286.44;5030585;28;20212;-63
2022/04/24 09:16:51;;;;;;;3.35;2.33;;;;;;;22.39;53.79;94336.56;5031861;28;20289;-62
2022/04/24 09:19:22;;;;;;;7.53;3.30;;;;;;;22.21;51.91;94369.34;5031762;28;20174;-62
2022/04/24 09:21:48;;;;;;;3.92;1.70;;;;;;;22.80;50.92;94381.97;5031825;28;20229;-61
2022/04/24 09:24:15;;;;;;;6.53;2.00;;;;;;;23.04;49.73;94396.72;5032381;28;20205;-64
2022/04/24 09:26:52;;;;;;;2.90;1.92;;;;;;;23.35;49.90;94396.69;5030787;28;20216;-62
2022/04/24 09:29:17;;;;;;;6.22;2.72;;;;;;;23.40;49.18;94385.66;5030688;28;20238;-63
2022/04/24 09:31:50;;;;;;;9.15;2.15;;;;;;;23.77;51.05;94330.16;5030560;28;20238;-61
2022/04/24 09:34:18;;;;;;;2.78;2.28;;;;;;;24.04;49.16;94385.97;5031836;28;20265;-61
2022/04/24 09:36:59;;;;;;;3.65;2.15;;;;;;;23.78;48.15;94397.44;5031700;28;20619;-62
2022/04/24 09:39:28;;;;;;;4.20;2.08;;;;;;;23.76;48.89;94365.69;5031693;28;20162;-64
2022/04/24 09:42:07;;;;;;;5.63;2.55;;;;;;;24.25;48.81;94354.34;5031665;28;20321;-62
2022/04/24 09:44:53;;;;;;;6.18;2.20;;;;;;;24.56;48.83;94367.09;5030910;28;20256;-61
2022/04/24 09:47:24;;;;;;;7.63;2.17;;;;;;;24.69;46.41;94407.69;5032425;28;20209;-61
2022/04/24 09:49:50;;;;;;;4.88;2.05;;;;;;;25.07;50.46;94282.47;5032132;28;20174;-62
2022/04/24 09:52:19;;;;;;;4.95;2.17;;;;;;;24.88;47.17;94378.84;5031917;28;20212;-60
2022/04/24 09:54:51;;;;;;;4.53;2.00;;;;;;;24.68;47.27;94338.53;5031560;28;20186;-63
2022/04/24 09:57:18;;;;;;;4.95;2.00;;;;;;;24.56;46.16;94366.31;5031575;28;20218;-60
2022/04/24 09:59:45;;;;;;;3.28;1.90;;;;;;;24.87;45.76;94371.25;5031355;28;20206;-60
2022/04/24 10:02:12;;;;;;;4.20;2.00;;;;;;;25.27;46.46;94337.56;5031668;28;20210;-62
2022/04/24 10:04:39;;;;;;;5.85;2.33;;;;;;;25.50;47.13;94312.31;5031287;28;20228;-63
2022/04/24 10:07:06;;;;;;;5.63;2.22;;;;;;;25.22;43.94;94382.50;5030104;28;20767;-63
2022/04/24 10:09:37;;;;;;;5.93;2.10;;;;;;;24.98;43.62;94378.28;5030436;28;20182;-61
2022/04/24 10:12:08;;;;;;;3.47;2.20;;;;;;;25.07;42.41;94394.38;5032003;28;20217;-60
2022/04/24 10:14:43;;;;;;;3.92;1.67;;;;;;;25.53;45.05;94296.22;5031519;28;20214;-60
2022/04/24 10:17:47;;;;;;;3.70;1.95;;;;;;;26.17;45.53;94297.75;5031407;28;20222;-63
2022/04/24 10:20:46;;;;;;;7.00;2.20;;;;;;;26.49;43.36;94342.34;5008292;28;20201;-62
2022/04/24 10:23:12;;;;;;;4.63;1.73;;;;;;;26.82;43.85;94298.06;5033193;28;20663;-63
2022/04/24 10:25:42;;;;;;;5.80;2.05;;;;;;;26.61;40.66;94330.84;5035286;28;20249;-63
2022/04/24 10:28:09;;;;;;;3.33;2.13;;;;;;;26.22;39.46;94331.72;5035571;28;20202;-61
2022/04/24 10:30:35;;;;;;;7.07;2.08;;;;;;;26.34;40.81;94295.19;5034999;28;20651;-60
2022/04/24 10:33:22;;;;;;;5.30;2.58;;;;;;;27.06;40.51;94294.25;5035210;28;20706;-63
2022/04/24 10:35:52;;;;;;;4.05;1.67;;;;;;;27.23;39.85;94307.28;5033501;28;20182;-62
2022/04/24 10:38:22;;;;;;;3.55;2.13;;;;;;;27.75;41.22;94266.69;5035086;28;20225;-63
2022/04/24 10:41:13;;;;;;;3.72;1.70;;;;;;;27.58;37.11;94360.00;5033789;28;20273;-62
2022/04/24 10:43:41;;;;;;;5.10;1.70;;;;;;;27.82;36.81;94330.00;5034996;28;20236;-63
2022/04/24 10:46:17;;;;;;;6.47;1.83;;;;;;;28.06;36.61;94338.41;5034433;28;20234;-64
2022/04/24 10:48:43;;;;;;;5.38;1.63;;;;;;;27.47;37.34;94292.22;5035085;28;20197;-63
2022/04/24 10:51:09;;;;;;;5.10;2.00;;;;;;;27.53;37.04;94291.25;5034610;28;20232;-61
2022/04/24 10:53:51;;;;;;;3.83;1.83;;;;;;;27.64;35.81;94298.16;5034572;28;20607;-62
2022/04/24 10:56:17;;;;;;;3.13;1.92;;;;;;;28.09;40.01;94189.69;5034430;28;20255;-63
2022/04/24 10:58:42;;;;;;;4.65;1.88;;;;;;;28.18;38.77;94237.88;5034544;28;20206;-63
2022/04/24 11:01:09;;;;;;;7.80;2.15;;;;;;;27.51;38.21;94247.09;5041259;23;20260;-61
2022/04/24 11:03:46;;;;;;;7.40;2.28;;;;;;;28.21;35.99;94310.63;5014484;28;20201;-62
2022/04/24 11:06:27;;;;;;;6.10;1.83;;;;;;;28.02;35.10;94304.13;5015217;28;20186;-63
2022/04/24 11:08:52;;;;;;;3.17;1.55;;;;;;;27.42;35.69;94280.69;5014477;28;20618;-64
2022/04/24 11:11:18;;;;;;;4.95;2.13;;;;;;;27.90;35.39;94286.97;5015247;28;20179;-60
2022/04/24 11:13:44;;;;;;;5.70;2.20;;;;;;;28.35;34.56;94307.59;5014574;28;20241;-63
2022/04/24 11:16:13;;;;;;;4.75;1.75;;;;;;;28.89;33.79;94316.97;5014369;28;20273;-61
2022/04/24 11:18:45;;;;;;;3.00;1.73;;;;;;;29.14;33.05;94335.53;5014418;28;20203;-63
2022/04/24 11:21:16;;;;;;;3.47;1.50;;;;;;;29.07;33.51;94287.00;5014277;28;20187;-62
2022/04/24 11:23:43;;;;;;;4.90;1.92;;;;;;;29.35;34.47;94257.84;5013300;28;20172;-64
2022/04/24 11:26:10;;;;;;;3.67;2.40;;;;;;;28.91;33.93;94262.53;5013463;28;20222;-63
2022/04/24 11:28:38;;;;;;;4.32;1.90;;;;;;;28.61;34.12;94242.19;5014151;28;20528;-63
2022/04/24 11:31:13;;;;;;;4.80;1.88;;;;;;;29.25;33.41;94257.81;5013020;28;20183;-63
2022/04/24 11:33:57;;;;;;;5.43;1.73;;;;;;;29.53;34.74;94224.13;5013996;28;20171;-64